createdAt,value
2019-06-08T00:00:37.785Z,13.73
2019-06-08T00:03:01.341Z,13.44
2019-06-08T00:05:24.953Z,13.41
2019-06-08T00:07:48.623Z,13.35
2019-06-08T00:10:13.203Z,13.56
2019-06-08T00:12:37.111Z,13.59
2019-06-08T00:15:00.677Z,13.34
2019-06-08T00:17:37.250Z,13.11
2019-06-08T00:19:49.530Z,13.03
2019-06-08T00:22:15.768Z,13.03
2019-06-08T00:24:40.649Z,12.94
2019-06-08T00:27:08.695Z,13.25
2019-06-08T00:29:32.751Z,12.92
2019-06-08T00:31:57.251Z,13.03
2019-06-08T00:34:26.124Z,13.03
2019-06-08T00:36:54.158Z,13.03
2019-06-08T00:39:18.871Z,12.89
2019-06-08T00:41:42.561Z,12.85
2019-06-08T00:44:07.595Z,13.05
2019-06-08T00:46:32.940Z,13.11
2019-06-08T00:48:57.108Z,13.09
2019-06-08T00:51:21.056Z,13.12
2019-06-08T00:53:45.040Z,13.02
2019-06-08T00:56:08.681Z,12.99
2019-06-08T00:58:32.846Z,13.06
2019-06-08T01:00:58.709Z,12.93
2019-06-08T01:03:23.746Z,12.94
2019-06-08T01:05:47.470Z,12.98
2019-06-08T01:08:12.190Z,12.93
2019-06-08T01:10:35.757Z,12.74
2019-06-08T01:12:59.611Z,12.59
2019-06-08T01:15:32.220Z,12.47
2019-06-08T01:18:02.168Z,12.41
2019-06-08T01:20:17.223Z,12.36
2019-06-08T01:22:40.791Z,12.42
2019-06-08T01:25:05.767Z,12.34
2019-06-08T01:27:30.142Z,12.47
2019-06-08T01:29:53.757Z,12.50
2019-06-08T01:32:17.409Z,12.20
2019-06-08T01:34:43.081Z,12.27
2019-06-08T01:37:07.561Z,12.19
2019-06-08T01:39:33.061Z,12.20
2019-06-08T01:41:56.891Z,12.17
2019-06-08T01:44:23.560Z,12.22
2019-06-08T01:46:47.179Z,12.28
2019-06-08T01:49:10.733Z,12.28
2019-06-08T01:51:34.328Z,12.39
2019-06-08T01:53:57.920Z,12.57
2019-06-08T01:56:22.840Z,12.57
2019-06-08T01:58:47.724Z,12.68
2019-06-08T02:01:12.225Z,12.57
2019-06-08T02:03:36.061Z,12.50
2019-06-08T02:06:02.844Z,12.34
2019-06-08T02:10:57.684Z,12.32
2019-06-08T02:13:21.274Z,12.35
2019-06-08T02:15:44.808Z,12.33
2019-06-08T02:18:08.404Z,12.29
2019-06-08T02:20:32.990Z,12.23
2019-06-08T02:22:56.667Z,12.28
2019-06-08T02:25:27.299Z,12.24
2019-06-08T02:27:51.064Z,12.11
2019-06-08T02:30:16.940Z,12.13
2019-06-08T02:32:40.674Z,12.30
2019-06-08T02:35:06.302Z,12.28
2019-06-08T02:37:30.823Z,12.27
2019-06-08T02:39:56.112Z,12.26
2019-06-08T02:42:20.262Z,12.09
2019-06-08T02:44:45.515Z,12.06
2019-06-08T02:47:09.067Z,12.09
2019-06-08T02:49:33.211Z,12.09
2019-06-08T02:52:05.880Z,12.13
2019-06-08T02:54:32.954Z,12.20
2019-06-08T02:56:58.129Z,12.46
2019-06-08T02:59:23.016Z,12.62
2019-06-08T03:01:48.399Z,12.52
2019-06-08T03:04:13.115Z,12.60
2019-06-08T03:06:41.171Z,12.79
2019-06-08T03:09:07.129Z,12.91
2019-06-08T03:11:34.829Z,12.98
2019-06-08T03:14:00.354Z,12.92
2019-06-08T03:16:24.300Z,12.82
2019-06-08T03:18:47.885Z,12.69
2019-06-08T03:21:11.430Z,12.78
2019-06-08T03:23:36.217Z,12.90
2019-06-08T03:26:08.850Z,13.06
2019-06-08T03:28:37.128Z,13.07
2019-06-08T03:31:03.421Z,13.02
2019-06-08T03:33:29.378Z,13.16
2019-06-08T03:35:57.875Z,13.12
2019-06-08T03:38:19.216Z,12.88
2019-06-08T03:40:45.149Z,12.98
2019-06-08T03:43:08.112Z,13.15
2019-06-08T03:45:31.700Z,13.25
2019-06-08T03:47:55.904Z,12.95
2019-06-08T03:50:19.930Z,12.84
2019-06-08T03:52:44.155Z,12.76
2019-06-08T03:55:09.374Z,12.72
2019-06-08T03:57:33.074Z,12.89
2019-06-08T03:59:58.073Z,13.12
2019-06-08T04:02:23.801Z,13.07
2019-06-08T04:04:47.443Z,13.24
2019-06-08T04:07:11.153Z,13.16
2019-06-08T04:09:34.720Z,13.16
2019-06-08T04:11:58.277Z,13.20
2019-06-08T04:14:22.048Z,13.33
2019-06-08T04:16:47.031Z,13.23
2019-06-08T04:19:10.764Z,13.32
2019-06-08T04:21:34.315Z,13.51
2019-06-08T04:23:57.835Z,13.65
2019-06-08T04:26:21.402Z,13.70
2019-06-08T04:28:47.203Z,13.75
2019-06-08T04:31:10.929Z,13.86
2019-06-08T04:33:35.645Z,13.81
2019-06-08T04:36:00.243Z,13.57
2019-06-08T04:38:23.838Z,13.35
2019-06-08T04:40:48.494Z,13.14
2019-06-08T04:43:12.687Z,13.10
2019-06-08T04:45:36.259Z,13.11
2019-06-08T04:47:59.801Z,13.09
2019-06-08T04:50:24.326Z,13.07
2019-06-08T04:52:49.975Z,13.00
2019-06-08T04:55:13.947Z,12.96
2019-06-08T04:57:39.313Z,12.98
2019-06-08T05:00:11.991Z,13.00
2019-06-08T05:02:28.212Z,13.16
2019-06-08T05:04:51.788Z,13.00
2019-06-08T05:07:15.637Z,13.01
2019-06-08T05:09:41.100Z,12.91
2019-06-08T05:12:05.175Z,12.97
2019-06-08T05:14:28.860Z,13.18
2019-06-08T05:16:52.423Z,13.24
2019-06-08T05:19:15.963Z,13.41
2019-06-08T05:21:39.643Z,13.20
2019-06-08T05:24:03.152Z,13.41
2019-06-08T05:26:26.718Z,13.24
2019-06-08T05:28:50.281Z,13.13
2019-06-08T05:31:13.876Z,13.44
2019-06-08T05:33:37.510Z,13.25
2019-06-08T05:36:08.194Z,13.13
2019-06-08T05:38:32.915Z,13.33
2019-06-08T05:40:58.077Z,13.27
2019-06-08T05:43:22.617Z,13.43
2019-06-08T05:45:46.337Z,13.47
2019-06-08T05:48:09.908Z,13.50
2019-06-08T05:50:33.591Z,13.29
2019-06-08T05:52:57.124Z,13.23
2019-06-08T05:55:21.271Z,13.32
2019-06-08T05:57:46.208Z,13.26
2019-06-08T06:00:12.089Z,13.32
2019-06-08T06:02:37.845Z,13.30
2019-06-08T06:05:06.952Z,13.37
2019-06-08T06:07:32.111Z,13.63
2019-06-08T06:09:55.863Z,13.73
2019-06-08T06:12:19.723Z,13.47
2019-06-08T06:14:43.438Z,13.40
2019-06-08T06:17:07.298Z,13.45
2019-06-08T06:19:31.083Z,13.36
2019-06-08T06:21:54.944Z,13.55
2019-06-08T06:24:18.573Z,13.46
2019-06-08T06:26:43.202Z,13.52
2019-06-08T06:29:06.858Z,13.70
2019-06-08T06:31:30.434Z,13.99
2019-06-08T06:33:54.981Z,14.08
2019-06-08T06:36:19.669Z,14.15
2019-06-08T06:38:44.084Z,13.94
2019-06-08T06:41:07.844Z,14.14
2019-06-08T06:43:31.370Z,13.82
2019-06-08T06:45:55.808Z,14.20
2019-06-08T06:48:23.415Z,13.97
2019-06-08T06:50:46.697Z,14.09
2019-06-08T06:53:11.855Z,13.96
2019-06-08T06:55:43.242Z,13.88
2019-06-08T06:58:06.791Z,13.92
2019-06-08T07:00:32.132Z,14.10
2019-06-08T07:02:55.700Z,14.41
2019-06-08T07:05:22.600Z,14.38
2019-06-08T07:07:48.177Z,14.37
2019-06-08T07:10:13.637Z,14.44
2019-06-08T07:12:38.586Z,14.17
2019-06-08T07:15:04.280Z,14.01
2019-06-08T07:17:28.215Z,14.13
2019-06-08T07:19:52.621Z,14.00
2019-06-08T07:22:17.434Z,14.20
2019-06-08T07:24:41.524Z,14.28
2019-06-08T07:27:08.137Z,14.24
2019-06-08T07:29:32.115Z,14.14
2019-06-08T07:31:56.040Z,14.01
2019-06-08T07:34:20.438Z,14.05
2019-06-08T07:36:45.347Z,13.89
2019-06-08T07:39:09.315Z,14.05
2019-06-08T07:41:33.345Z,14.09
2019-06-08T07:43:58.534Z,14.14
2019-06-08T07:46:22.631Z,14.30
2019-06-08T07:48:48.017Z,14.10
2019-06-08T07:51:12.051Z,14.37
2019-06-08T07:53:36.972Z,14.57
2019-06-08T07:56:03.563Z,14.52
2019-06-08T07:58:29.854Z,14.49
2019-06-08T08:00:54.652Z,14.52
2019-06-08T08:03:19.730Z,14.74
2019-06-08T08:05:46.003Z,14.64
2019-06-08T08:08:14.219Z,14.65
2019-06-08T08:10:40.376Z,14.90
2019-06-08T08:13:05.099Z,14.76
2019-06-08T08:15:36.118Z,14.76
2019-06-08T08:18:02.379Z,15.12
2019-06-08T08:20:27.774Z,15.35
2019-06-08T08:23:01.838Z,16.02
2019-06-08T08:25:24.613Z,16.09
2019-06-08T08:27:50.747Z,16.80
2019-06-08T08:30:17.286Z,16.99
2019-06-08T08:32:42.666Z,17.01
2019-06-08T08:35:08.844Z,17.09
2019-06-08T08:37:32.854Z,17.00
2019-06-08T08:39:59.647Z,16.92
2019-06-08T08:42:22.301Z,16.16
2019-06-08T08:44:51.075Z,16.13
2019-06-08T08:47:18.776Z,16.05
2019-06-08T08:49:51.110Z,16.33
2019-06-08T08:52:17.672Z,16.51
2019-06-08T08:54:42.950Z,16.14
2019-06-08T08:57:08.381Z,16.40
2019-06-08T08:59:39.590Z,16.77
2019-06-08T09:02:11.426Z,16.87
2019-06-08T09:04:37.872Z,16.84
2019-06-08T09:07:05.555Z,17.19
2019-06-08T09:09:28.907Z,17.77
2019-06-08T09:11:55.993Z,18.12
2019-06-08T09:14:21.115Z,17.83
2019-06-08T09:16:48.181Z,17.32
2019-06-08T09:19:11.867Z,17.11
2019-06-08T09:21:38.228Z,17.32
2019-06-08T09:24:04.117Z,18.09
2019-06-08T09:26:31.304Z,17.44
2019-06-08T09:28:56.079Z,17.37
2019-06-08T09:31:20.274Z,17.60
2019-06-08T09:33:55.146Z,18.36
2019-06-08T09:36:11.865Z,17.49
2019-06-08T09:38:38.538Z,17.53
2019-06-08T09:41:04.012Z,17.64
2019-06-08T09:43:28.906Z,18.05
2019-06-08T09:45:55.348Z,18.74
2019-06-08T09:48:22.045Z,18.49
2019-06-08T09:50:48.665Z,18.11
2019-06-08T09:53:23.878Z,18.33
2019-06-08T09:55:41.454Z,18.10
2019-06-08T09:58:11.057Z,18.65
2019-06-08T10:00:31.957Z,18.70
2019-06-08T10:02:59.628Z,18.96
2019-06-08T10:05:21.763Z,18.58
2019-06-08T10:07:48.673Z,18.94
2019-06-08T10:10:13.270Z,19.07
2019-06-08T10:12:40.938Z,19.29
2019-06-08T10:15:09.136Z,19.35
2019-06-08T10:17:33.298Z,19.59
2019-06-08T10:20:00.468Z,18.68
2019-06-08T10:22:23.165Z,18.93
2019-06-08T10:24:49.030Z,19.05
2019-06-08T10:27:18.542Z,18.74
2019-06-08T10:29:43.253Z,18.82
2019-06-08T10:32:09.290Z,18.69
2019-06-08T10:34:33.818Z,19.35
2019-06-08T10:37:03.375Z,20.09
2019-06-08T10:39:28.248Z,19.00
2019-06-08T10:41:51.894Z,19.32
2019-06-08T10:44:18.711Z,19.84
2019-06-08T10:46:44.345Z,20.21
2019-06-08T10:49:13.916Z,20.31
2019-06-08T10:51:34.564Z,20.36
2019-06-08T10:53:59.867Z,20.19
2019-06-08T10:56:24.209Z,19.83
2019-06-08T10:58:49.771Z,19.76
2019-06-08T11:01:18.813Z,19.38
2019-06-08T11:03:43.680Z,19.47
2019-06-08T11:06:13.108Z,19.87
2019-06-08T11:08:38.868Z,19.92
2019-06-08T11:11:03.005Z,20.10
2019-06-08T11:13:28.889Z,20.61
2019-06-08T11:15:58.045Z,20.70
2019-06-08T11:18:21.899Z,20.06
2019-06-08T11:20:47.910Z,20.43
2019-06-08T11:23:13.484Z,20.12
2019-06-08T11:25:37.905Z,20.00
2019-06-08T11:28:03.489Z,20.34
2019-06-08T11:30:30.579Z,19.95
2019-06-08T11:32:53.985Z,20.65
2019-06-08T11:35:18.233Z,20.31
2019-06-08T11:37:43.107Z,20.76
2019-06-08T11:40:29.578Z,21.09
2019-06-08T11:42:55.568Z,20.50
2019-06-08T11:45:21.614Z,20.62
2019-06-08T11:47:49.266Z,20.91
2019-06-08T11:50:14.932Z,21.03
2019-06-08T11:52:40.526Z,21.60
2019-06-08T11:55:11.214Z,20.78
2019-06-08T11:57:34.699Z,20.68
2019-06-08T12:02:24.409Z,20.90
2019-06-08T12:04:49.362Z,21.70
2019-06-08T12:07:16.639Z,22.15
2019-06-08T12:09:42.178Z,22.64
2019-06-08T12:12:15.422Z,22.64
2019-06-08T12:14:37.713Z,21.95
2019-06-08T12:17:03.432Z,22.64
2019-06-08T12:19:31.415Z,22.43
2019-06-08T12:21:58.006Z,22.32
2019-06-08T12:24:38.502Z,22.56
2019-06-08T12:26:59.056Z,23.09
2019-06-08T12:29:18.927Z,22.78
2019-06-08T12:31:43.110Z,22.38
2019-06-08T12:34:07.282Z,21.63
2019-06-08T12:36:31.991Z,22.45
2019-06-08T12:39:03.407Z,22.36
2019-06-08T12:41:31.518Z,22.06
2019-06-08T12:43:54.987Z,22.60
2019-06-08T12:46:21.379Z,22.63
2019-06-08T12:48:44.903Z,22.92
2019-06-08T12:51:11.579Z,22.69
2019-06-08T12:53:38.147Z,22.35
2019-06-08T12:56:03.994Z,22.73
2019-06-08T12:58:29.541Z,22.89
2019-06-08T13:00:53.633Z,23.64
2019-06-08T13:03:18.782Z,23.04
2019-06-08T13:05:46.437Z,23.20
2019-06-08T13:08:13.647Z,23.08
2019-06-08T13:10:38.342Z,22.89
2019-06-08T13:13:02.608Z,22.48
2019-06-08T13:15:30.988Z,22.22
2019-06-08T13:17:54.971Z,22.49
2019-06-08T13:20:22.427Z,23.17
2019-06-08T13:22:48.200Z,23.42
2019-06-08T13:25:25.884Z,22.13
2019-06-08T13:27:39.065Z,22.13
2019-06-08T13:30:03.259Z,22.64
2019-06-08T13:32:28.586Z,23.04
2019-06-08T13:34:53.483Z,23.76
2019-06-08T13:37:21.684Z,24.00
2019-06-08T13:39:47.713Z,23.38
2019-06-08T13:42:13.492Z,24.01
2019-06-08T13:44:39.467Z,24.22
2019-06-08T13:47:07.618Z,24.24
2019-06-08T13:49:34.935Z,23.49
2019-06-08T13:51:59.806Z,23.74
2019-06-08T13:54:24.384Z,23.58
2019-06-08T13:56:50.675Z,23.97
2019-06-08T13:59:19.230Z,24.43
2019-06-08T14:01:41.673Z,24.30
2019-06-08T14:04:08.789Z,24.54
2019-06-08T14:06:38.045Z,24.53
2019-06-08T14:09:03.758Z,24.59
2019-06-08T14:11:28.317Z,25.12
2019-06-08T14:13:55.174Z,24.48
2019-06-08T14:16:21.551Z,24.30
2019-06-08T14:18:44.984Z,25.34
2019-06-08T14:21:09.178Z,26.04
2019-06-08T14:23:38.688Z,24.23
2019-06-08T14:26:03.984Z,24.99
2019-06-08T14:28:29.002Z,24.68
2019-06-08T14:30:55.517Z,25.48
2019-06-08T14:33:24.116Z,24.37
2019-06-08T14:35:45.065Z,24.73
2019-06-08T14:38:09.329Z,25.32
2019-06-08T14:40:33.579Z,24.98
2019-06-08T14:43:05.371Z,25.66
2019-06-08T14:45:32.725Z,25.47
2019-06-08T14:47:58.831Z,24.97
2019-06-08T14:50:28.863Z,23.67
2019-06-08T14:52:51.405Z,22.56
2019-06-08T14:55:18.282Z,22.00
2019-06-08T14:57:41.776Z,22.25
2019-06-08T15:00:12.199Z,22.18
2019-06-08T15:02:34.626Z,21.91
2019-06-08T15:04:58.873Z,21.54
2019-06-08T15:07:25.354Z,21.55
2019-06-08T15:09:50.747Z,20.83
2019-06-08T15:12:17.893Z,20.99
2019-06-08T15:14:45.080Z,21.47
2019-06-08T15:17:10.868Z,20.88
2019-06-08T15:19:37.455Z,21.04
2019-06-08T15:22:03.970Z,21.00
2019-06-08T15:24:32.303Z,20.72
2019-06-08T15:26:58.155Z,20.83
2019-06-08T15:29:24.948Z,20.88
2019-06-08T15:31:50.219Z,21.13
2019-06-08T15:34:14.280Z,20.59
2019-06-08T15:36:38.561Z,20.76
2019-06-08T15:39:03.681Z,21.03
2019-06-08T15:41:29.896Z,21.01
2019-06-08T15:43:53.476Z,21.24
2019-06-08T15:46:19.847Z,21.01
2019-06-08T15:48:43.794Z,21.04
2019-06-08T15:51:08.017Z,20.71
2019-06-08T15:53:34.329Z,20.69
2019-06-08T15:55:58.491Z,20.65
2019-06-08T15:58:24.865Z,20.80
2019-06-08T16:00:49.176Z,20.96
2019-06-08T16:03:13.388Z,20.82
2019-06-08T16:05:38.775Z,20.72
2019-06-08T16:08:04.238Z,20.89
2019-06-08T16:10:30.266Z,20.67
2019-06-08T16:12:55.715Z,20.59
2019-06-08T16:15:21.028Z,20.57
2019-06-08T16:17:45.047Z,20.35
2019-06-08T16:20:09.313Z,20.53
2019-06-08T16:22:33.940Z,20.39
2019-06-08T16:24:58.133Z,20.28
2019-06-08T16:27:22.269Z,20.21
2019-06-08T16:29:48.788Z,20.31
2019-06-08T16:32:15.452Z,20.32
2019-06-08T16:34:43.339Z,20.65
2019-06-08T16:37:10.839Z,20.28
2019-06-08T16:39:36.242Z,20.31
2019-06-08T16:42:02.773Z,19.92
2019-06-08T16:44:32.231Z,20.21
2019-06-08T16:46:57.605Z,20.20
2019-06-08T16:49:23.018Z,20.12
2019-06-08T16:51:47.910Z,20.15
2019-06-08T16:54:12.321Z,21.15
2019-06-08T16:56:40.278Z,22.97
2019-06-08T16:59:05.656Z,23.98
2019-06-08T17:01:30.882Z,24.07
2019-06-08T17:03:55.205Z,24.40
2019-06-08T17:06:19.583Z,23.43
2019-06-08T17:08:43.652Z,23.80
2019-06-08T17:11:11.092Z,23.37
2019-06-08T17:13:38.137Z,23.27
2019-06-08T17:16:03.258Z,22.91
2019-06-08T17:18:38.155Z,22.30
2019-06-08T17:21:02.671Z,22.56
2019-06-08T17:23:28.641Z,21.51
2019-06-08T17:25:55.512Z,21.54
2019-06-08T17:28:21.399Z,21.47
2019-06-08T17:30:47.688Z,21.00
2019-06-08T17:33:12.351Z,21.45
2019-06-08T17:35:38.071Z,21.42
2019-06-08T17:38:02.230Z,20.70
2019-06-08T17:40:28.174Z,20.72
2019-06-08T17:42:52.642Z,20.47
2019-06-08T17:45:19.195Z,20.24
2019-06-08T17:47:45.934Z,20.02
2019-06-08T17:50:10.691Z,19.90
2019-06-08T17:52:35.921Z,19.88
2019-06-08T17:55:02.854Z,19.83
2019-06-08T17:57:42.364Z,19.86
2019-06-08T17:59:57.050Z,19.56
2019-06-08T18:02:29.129Z,19.56
2019-06-08T18:04:52.298Z,19.24
2019-06-08T18:07:20.165Z,19.12
2019-06-08T18:09:48.341Z,19.07
2019-06-08T18:12:18.334Z,19.12
2019-06-08T18:14:47.826Z,19.15
2019-06-08T18:17:13.917Z,18.86
2019-06-08T18:19:43.153Z,18.70
2019-06-08T18:22:15.091Z,18.49
2019-06-08T18:24:34.527Z,18.52
2019-06-08T18:26:59.695Z,18.24
2019-06-08T18:29:24.741Z,18.53
2019-06-08T18:31:50.391Z,18.27
2019-06-08T18:34:23.259Z,18.25
2019-06-08T18:36:50.570Z,18.20
2019-06-08T18:39:18.031Z,18.17
2019-06-08T18:41:43.805Z,17.99
2019-06-08T18:44:08.498Z,17.87
2019-06-08T18:46:32.710Z,17.90
2019-06-08T18:48:57.916Z,17.78
2019-06-08T18:51:21.496Z,17.56
2019-06-08T18:54:00.836Z,17.37
2019-06-08T18:56:11.848Z,17.16
2019-06-08T18:58:37.725Z,17.18
2019-06-08T19:01:03.141Z,17.15
2019-06-08T19:03:28.854Z,17.18
2019-06-08T19:05:52.534Z,17.17
2019-06-08T19:08:18.479Z,17.06
2019-06-08T19:10:44.060Z,16.63
2019-06-08T19:13:08.185Z,16.34
2019-06-08T19:15:41.939Z,16.06
2019-06-08T19:18:02.909Z,15.94
2019-06-08T19:20:28.415Z,16.02
2019-06-08T19:22:54.344Z,16.07
2019-06-08T19:25:18.568Z,16.14
2019-06-08T19:27:47.536Z,16.09
2019-06-08T19:30:11.820Z,16.00
2019-06-08T19:32:38.896Z,15.95
2019-06-08T19:35:07.219Z,15.95
2019-06-08T19:37:32.888Z,15.96
2019-06-08T19:39:57.682Z,15.97
2019-06-08T19:42:35.752Z,15.96
2019-06-08T19:44:57.596Z,15.81
2019-06-08T19:47:12.148Z,15.66
2019-06-08T19:49:35.712Z,15.46
2019-06-08T19:51:59.658Z,14.88
2019-06-08T19:54:24.821Z,14.82
2019-06-08T19:56:54.343Z,14.89
2019-06-08T19:59:14.985Z,14.76
2019-06-08T20:01:41.462Z,14.79
2019-06-08T20:04:07.365Z,14.79
2019-06-08T20:06:33.352Z,14.80
2019-06-08T20:08:58.393Z,14.77
2019-06-08T20:11:23.739Z,14.01
2019-06-08T20:13:50.456Z,13.91
2019-06-08T20:16:17.405Z,13.76
2019-06-08T20:18:43.912Z,13.90
2019-06-08T20:21:10.352Z,14.09
2019-06-08T20:23:38.088Z,14.16
2019-06-08T20:26:01.891Z,14.17
2019-06-08T20:28:28.219Z,14.23
2019-06-08T20:31:01.525Z,14.25
2019-06-08T20:33:27.267Z,14.27
2019-06-08T20:35:53.903Z,14.26
2019-06-08T20:38:17.796Z,14.24
2019-06-08T20:40:43.964Z,14.23
2019-06-08T20:43:08.730Z,14.21
2019-06-08T20:45:32.479Z,14.23
2019-06-08T20:47:58.229Z,14.20
2019-06-08T20:50:22.393Z,14.13
2019-06-08T20:52:49.268Z,14.09
2019-06-08T20:55:13.873Z,14.03
2019-06-08T20:57:38.832Z,13.96
2019-06-08T21:00:08.424Z,13.93
2019-06-08T21:02:31.656Z,13.83
2019-06-08T21:04:56.330Z,13.82
2019-06-08T21:07:19.985Z,13.77
2019-06-08T21:09:50.696Z,13.71
2019-06-08T21:12:12.946Z,13.68
2019-06-08T21:14:37.970Z,13.64
2019-06-08T21:17:01.633Z,13.45
2019-06-08T21:19:25.209Z,13.23
2019-06-08T21:21:51.979Z,13.00
2019-06-08T21:24:17.351Z,13.04
2019-06-08T21:26:40.664Z,13.07
2019-06-08T21:29:04.267Z,13.03
2019-06-08T21:31:28.542Z,12.70
2019-06-08T21:33:54.536Z,12.31
2019-06-08T21:36:18.316Z,12.15
2019-06-08T21:38:41.822Z,11.94
2019-06-08T21:41:08.342Z,11.80
2019-06-08T21:43:31.996Z,11.73
2019-06-08T21:46:00.858Z,11.73
2019-06-08T21:48:23.123Z,11.89
2019-06-08T21:50:50.063Z,12.14
2019-06-08T21:53:18.105Z,12.34
2019-06-08T21:55:41.805Z,12.46
2019-06-08T21:58:05.330Z,12.37
2019-06-08T22:00:39.488Z,12.02
2019-06-08T22:03:00.234Z,11.76
2019-06-08T22:05:23.899Z,11.50
2019-06-08T22:07:48.487Z,11.17
2019-06-08T22:10:14.531Z,11.21
2019-06-08T22:12:40.623Z,11.17
2019-06-08T22:15:07.713Z,11.04
2019-06-08T22:17:40.782Z,10.98
2019-06-08T22:20:08.170Z,10.98
2019-06-08T22:22:31.848Z,11.13
2019-06-08T22:24:55.468Z,11.41
2019-06-08T22:27:19.017Z,11.65
2019-06-08T22:29:42.548Z,11.81
2019-06-08T22:32:07.739Z,11.42
2019-06-08T22:34:31.374Z,11.22
2019-06-08T22:36:56.634Z,11.34
2019-06-08T22:39:24.159Z,11.44
2019-06-08T22:41:51.394Z,11.56
2019-06-08T22:44:17.717Z,11.26
2019-06-08T22:46:47.880Z,11.11
2019-06-08T22:49:15.142Z,10.93
2019-06-08T22:51:38.417Z,10.87
2019-06-08T22:54:02.735Z,11.04
2019-06-08T22:56:32.661Z,11.22
2019-06-08T22:59:00.548Z,11.41
2019-06-08T23:01:23.724Z,11.31
2019-06-08T23:03:50.839Z,11.03
2019-06-08T23:06:17.873Z,11.09
2019-06-08T23:08:41.409Z,11.16
2019-06-08T23:11:07.644Z,11.20
2019-06-08T23:13:30.256Z,11.20
2019-06-08T23:15:55.246Z,11.30
2019-06-08T23:18:19.074Z,11.34
2019-06-08T23:20:42.634Z,11.09
2019-06-08T23:23:08.632Z,10.82
2019-06-08T23:25:32.566Z,10.59
2019-06-08T23:27:56.277Z,10.35
2019-06-08T23:30:20.893Z,10.49
2019-06-08T23:32:48.336Z,10.64
2019-06-08T23:35:13.178Z,10.81
2019-06-08T23:37:37.812Z,10.54
2019-06-08T23:40:02.200Z,10.46
2019-06-08T23:42:27.326Z,10.56
2019-06-08T23:44:52.065Z,10.70
2019-06-08T23:47:17.831Z,10.73
2019-06-08T23:49:40.904Z,10.66
2019-06-08T23:52:06.326Z,10.24
2019-06-08T23:54:30.713Z,9.85
2019-06-08T23:56:54.276Z,9.63
2019-06-08T23:59:17.904Z,9.78
